»·PEaware :: CAX948 KORD-KPHX

CAX948 :: KORD-KPHX

FLIGHT INFORMATION

Flight Status: Arrived
Operator:
California Airlines (website)
More flights by this operator :: More flights under this callsign
Pilot: Tony D. (5369)
Aircraft: BOEING 737-800
(B738)
More flights by this aircraft type
Origin: KORD Chicago-O'Hare Intl
United States
Destination: KPHX Phoenix Sky Harbor Intl
United States
More flights between these airports :: More routes between these airports
Route: +OLINN OREOS OBENE OGALE OVR LNK J146 GLD PUB ALS J102 GUP EAGUL6
File this flight plan on PilotEdge
Remarks:
Altitude:
(Current/Filed)
34,000ft
Speed:
(Current/Filed)
450kts
Departed: 22-Sep-18 05:10 AM
Arrived: 22-Sep-18 08:31 AM
Distance/Time
Traveled:
1248nm/3:20
Distance/Time
To Go:
Arrived

Flight Plot

Page will automatically refresh every two minutes.


Map Options




Map Legend


Flown Route
Filed Route
Departure Airport
Arrival Airport
Navaid (VOR, NDB)
Fix

Horizontal Profiles

Position Reports

Time Latitude Longitude Heading Altitude Ground
Speed
22-Sep-18 04:50 41.980856 -87.906886 100 663ft 0kts
22-Sep-18 04:51 41.980856 -87.906886 100 663ft 0kts
22-Sep-18 04:52 41.980856 -87.906886 100 663ft 0kts
22-Sep-18 04:53 41.980856 -87.906886 100 663ft 0kts
22-Sep-18 04:54 41.980856 -87.906886 100 663ft 0kts
22-Sep-18 04:55 41.980856 -87.906886 100 663ft 0kts
22-Sep-18 04:56 41.980856 -87.906886 100 663ft 0kts
22-Sep-18 04:57 41.980856 -87.906886 100 663ft 0kts
22-Sep-18 04:58 41.980856 -87.906886 100 663ft 0kts
22-Sep-18 04:59 41.980856 -87.906886 100 663ft 0kts
22-Sep-18 05:00 41.980856 -87.906886 100 663ft 0kts
22-Sep-18 05:01 41.980856 -87.906886 100 663ft 0kts
22-Sep-18 05:02 41.980856 -87.906886 100 663ft 0kts
22-Sep-18 05:03 41.980856 -87.906886 100 663ft 0kts
22-Sep-18 05:04 41.980896 -87.907250 83 663ft 2kts
22-Sep-18 05:05 41.980532 -87.907812 11 664ft 1kts
22-Sep-18 05:06 41.980461 -87.907825 7 664ft 0kts
22-Sep-18 05:07 41.980461 -87.907825 7 664ft 0kts
22-Sep-18 05:08 41.981272 -87.907804 355 663ft 7kts
22-Sep-18 05:09 41.982077 -87.909719 242 662ft 6kts
22-Sep-18 05:10 41.980977 -87.911936 283 664ft 8kts
22-Sep-18 05:11 41.981283 -87.912680 303 664ft 0kts
22-Sep-18 05:12 41.983186 -87.912359 38 662ft 47kts
22-Sep-18 05:13 42.011438 -87.878333 41 1830ft 177kts
22-Sep-18 05:14 42.057362 -87.876963 290 2822ft 251kts
22-Sep-18 05:15 42.025511 -87.959212 235 6035ft 270kts
22-Sep-18 05:16 42.008310 -88.055522 262 9095ft 272kts
22-Sep-18 05:17 41.995378 -88.160761 262 11438ft 302kts
22-Sep-18 05:18 41.983832 -88.253772 262 13875ft 307kts
22-Sep-18 05:19 41.967252 -88.386275 262 17269ft 312kts
22-Sep-18 05:20 41.952720 -88.501588 262 19914ft 316kts
22-Sep-18 05:21 41.940356 -88.599021 262 21931ft 320kts
22-Sep-18 05:22 41.925268 -88.716336 260 24129ft 326kts
22-Sep-18 05:23 41.910765 -88.857326 266 26386ft 335kts
22-Sep-18 05:24 41.907574 -88.963030 267 27728ft 345kts
22-Sep-18 05:25 41.903605 -89.092962 266 29232ft 355kts
22-Sep-18 05:26 41.899151 -89.224582 263 31113ft 351kts
22-Sep-18 05:27 41.887028 -89.351848 261 32916ft 343kts
22-Sep-18 05:28 41.874783 -89.476353 261 34366ft 341kts
22-Sep-18 05:29 41.861899 -89.607220 261 34378ft 375kts
22-Sep-18 05:30 41.848091 -89.746977 260 34379ft 380kts
22-Sep-18 05:31 41.830980 -89.886916 258 34386ft 380kts
22-Sep-18 05:32 41.812417 -90.025751 258 34393ft 380kts
22-Sep-18 05:33 41.793971 -90.164947 259 34388ft 380kts
22-Sep-18 05:34 41.775664 -90.304314 258 34381ft 380kts
22-Sep-18 05:35 41.757703 -90.442316 259 34380ft 380kts
22-Sep-18 05:36 41.739942 -90.580100 259 34379ft 380kts
22-Sep-18 05:37 41.722173 -90.718704 258 34390ft 380kts
22-Sep-18 05:38 41.704524 -90.858049 259 34387ft 380kts
22-Sep-18 05:39 41.687095 -90.997175 259 34386ft 381kts
22-Sep-18 05:40 41.669518 -91.138756 260 34374ft 392kts
22-Sep-18 05:41 41.652066 -91.280975 261 34374ft 397kts
22-Sep-18 05:42 41.634418 -91.426239 261 34376ft 397kts
22-Sep-18 05:43 41.616942 -91.571307 261 34379ft 397kts
22-Sep-18 05:44 41.599595 -91.716421 260 34384ft 397kts
22-Sep-18 05:45 41.582615 -91.860090 260 34378ft 398kts
22-Sep-18 05:46 41.565638 -92.005581 261 34371ft 396kts
22-Sep-18 05:47 41.549502 -92.145184 261 34363ft 397kts
22-Sep-18 05:48 41.533061 -92.289023 261 34367ft 396kts
22-Sep-18 05:49 41.516660 -92.434315 261 34372ft 396kts
22-Sep-18 05:50 41.500422 -92.579337 261 34365ft 397kts
22-Sep-18 05:51 41.484290 -92.724699 261 34377ft 397kts
22-Sep-18 05:52 41.468339 -92.869966 261 34384ft 396kts
22-Sep-18 05:53 41.452996 -93.011552 262 34374ft 404kts
22-Sep-18 05:54 41.437107 -93.159923 262 34351ft 409kts
22-Sep-18 05:55 41.421946 -93.302966 262 34354ft 409kts
22-Sep-18 05:56 41.406402 -93.451171 263 34354ft 409kts
22-Sep-18 05:57 41.391250 -93.600792 263 34351ft 409kts
22-Sep-18 05:58 41.374697 -93.749887 262 34357ft 409kts
22-Sep-18 05:59 41.358014 -93.899105 262 34359ft 409kts
22-Sep-18 06:00 41.341584 -94.047946 262 34361ft 409kts
22-Sep-18 06:01 41.325272 -94.197295 262 34361ft 408kts
22-Sep-18 06:02 41.309135 -94.346858 262 34362ft 409kts
22-Sep-18 06:03 41.293278 -94.495517 262 34360ft 409kts
22-Sep-18 06:04 41.277595 -94.644444 263 34357ft 409kts
22-Sep-18 06:05 41.262020 -94.793355 262 34362ft 409kts
22-Sep-18 06:06 41.246770 -94.941376 263 34355ft 412kts
22-Sep-18 06:07 41.231400 -95.092589 263 34357ft 414kts
22-Sep-18 06:08 41.216203 -95.243895 263 34360ft 414kts
22-Sep-18 06:09 41.201303 -95.394091 263 34358ft 414kts
22-Sep-18 06:10 41.186732 -95.542807 264 34352ft 414kts
22-Sep-18 06:11 41.172185 -95.692620 263 34360ft 414kts
22-Sep-18 06:12 41.144544 -95.839971 252 34362ft 417kts
22-Sep-18 06:13 41.107789 -95.986017 254 34363ft 416kts
22-Sep-18 06:14 41.072395 -96.130411 253 34361ft 412kts
22-Sep-18 06:15 41.037458 -96.273909 253 34354ft 407kts
22-Sep-18 06:16 41.003319 -96.414795 253 34347ft 404kts
22-Sep-18 06:17 40.969336 -96.555718 253 34344ft 401kts
22-Sep-18 06:18 40.935783 -96.695337 252 34364ft 401kts
22-Sep-18 06:19 40.899984 -96.826106 247 34366ft 401kts
22-Sep-18 06:20 40.857269 -96.955195 247 34367ft 401kts
22-Sep-18 06:21 40.812579 -97.090646 247 34353ft 409kts
22-Sep-18 06:22 40.766841 -97.229821 248 34343ft 417kts
22-Sep-18 06:23 40.721027 -97.369669 248 34340ft 415kts
22-Sep-18 06:24 40.675563 -97.508977 248 34334ft 416kts
22-Sep-18 06:25 40.630237 -97.648393 248 34334ft 416kts
22-Sep-18 06:26 40.584877 -97.788324 248 34339ft 416kts
22-Sep-18 06:27 40.539861 -97.927850 248 34339ft 416kts
22-Sep-18 06:28 40.494914 -98.067693 248 34333ft 416kts
22-Sep-18 06:29 40.450130 -98.207573 248 34328ft 416kts
22-Sep-18 06:30 40.405609 -98.347174 248 34326ft 415kts
22-Sep-18 06:31 40.361317 -98.486579 248 34325ft 416kts
22-Sep-18 06:32 40.317667 -98.624491 249 34324ft 415kts
22-Sep-18 06:33 40.274028 -98.762764 248 34326ft 416kts
22-Sep-18 06:34 40.230138 -98.902499 248 34320ft 416kts
22-Sep-18 06:35 40.185927 -99.043867 249 34318ft 425kts
22-Sep-18 06:36 40.141174 -99.187522 249 34319ft 429kts
22-Sep-18 06:37 40.096848 -99.330351 249 34319ft 428kts
22-Sep-18 06:38 40.052318 -99.474376 249 34318ft 428kts
22-Sep-18 06:39 40.007960 -99.618467 249 34317ft 428kts
22-Sep-18 06:40 39.963884 -99.762077 249 34333ft 429kts
22-Sep-18 06:41 39.920171 -99.905194 249 34341ft 428kts
22-Sep-18 06:42 39.876472 -100.048835 249 34346ft 428kts
22-Sep-18 06:43 39.833141 -100.191846 250 34346ft 428kts
22-Sep-18 06:44 39.789731 -100.335669 250 34345ft 428kts
22-Sep-18 06:45 39.746587 -100.479218 250 34346ft 428kts
22-Sep-18 06:46 39.703585 -100.622855 250 34346ft 428kts
22-Sep-18 06:47 39.661604 -100.763554 250 34344ft 428kts
22-Sep-18 06:48 39.618920 -100.907181 250 34326ft 431kts
22-Sep-18 06:49 39.575967 -101.052406 250 34310ft 434kts
22-Sep-18 06:50 39.532855 -101.198738 251 34308ft 434kts
22-Sep-18 06:51 39.490160 -101.344220 251 34305ft 434kts
22-Sep-18 06:52 39.447621 -101.489713 251 34285ft 434kts
22-Sep-18 06:53 39.405261 -101.635108 251 34280ft 434kts
22-Sep-18 06:54 39.356479 -101.777231 243 34284ft 436kts
22-Sep-18 06:55 39.299745 -101.914649 244 34282ft 436kts
22-Sep-18 06:56 39.243083 -102.053021 244 34276ft 436kts
22-Sep-18 06:57 39.186728 -102.191036 244 34273ft 436kts
22-Sep-18 06:58 39.130443 -102.329276 244 34273ft 436kts
22-Sep-18 06:59 39.074335 -102.467507 244 34275ft 436kts
22-Sep-18 07:00 39.018445 -102.605552 245 34271ft 433kts
22-Sep-18 07:01 38.964370 -102.739408 245 34277ft 419kts
22-Sep-18 07:02 38.911862 -102.869804 245 34276ft 406kts
22-Sep-18 07:03 38.861195 -102.996017 245 34278ft 396kts
22-Sep-18 07:04 38.810779 -103.122011 245 34290ft 400kts
22-Sep-18 07:05 38.761855 -103.244578 245 34299ft 401kts
22-Sep-18 07:06 38.711387 -103.371334 245 34298ft 401kts
22-Sep-18 07:07 38.661168 -103.497811 245 34288ft 401kts
22-Sep-18 07:08 38.610888 -103.624775 245 34278ft 401kts
22-Sep-18 07:09 38.560650 -103.751760 245 34279ft 401kts
22-Sep-18 07:10 38.510906 -103.877919 245 34280ft 401kts
22-Sep-18 07:11 38.463195 -103.999294 245 34279ft 401kts
22-Sep-18 07:12 38.415150 -104.121833 245 34280ft 401kts
22-Sep-18 07:13 38.365373 -104.248906 245 34280ft 401kts
22-Sep-18 07:14 38.316522 -104.374215 245 34279ft 401kts
22-Sep-18 07:15 38.255103 -104.491165 232 34277ft 407kts
22-Sep-18 07:16 38.181012 -104.598093 232 34276ft 406kts
22-Sep-18 07:17 38.107230 -104.705367 232 34286ft 406kts
22-Sep-18 07:18 38.033908 -104.812177 232 34284ft 406kts
22-Sep-18 07:19 37.960309 -104.919610 232 34283ft 407kts
22-Sep-18 07:20 37.886034 -105.028193 232 34300ft 410kts
22-Sep-18 07:21 37.811522 -105.137252 232 34407ft 414kts
22-Sep-18 07:22 37.736631 -105.246987 232 34482ft 414kts
22-Sep-18 07:23 37.662170 -105.356236 232 34481ft 413kts
22-Sep-18 07:24 37.587665 -105.465694 232 34480ft 413kts
22-Sep-18 07:25 37.513644 -105.574566 233 34478ft 413kts
22-Sep-18 07:26 37.439586 -105.683587 232 34488ft 414kts
22-Sep-18 07:27 37.365824 -105.792172 232 34486ft 414kts
22-Sep-18 07:28 37.296886 -105.904510 236 34485ft 412kts
22-Sep-18 07:29 37.228278 -106.019445 236 34484ft 412kts
22-Sep-18 07:30 37.160610 -106.131778 236 34483ft 412kts
22-Sep-18 07:31 37.092956 -106.244063 236 34481ft 409kts
22-Sep-18 07:32 37.027232 -106.353266 236 34480ft 399kts
22-Sep-18 07:33 36.962485 -106.461039 236 34481ft 389kts
22-Sep-18 07:34 36.897957 -106.568658 237 34483ft 388kts
22-Sep-18 07:35 36.833969 -106.675470 236 34501ft 389kts
22-Sep-18 07:36 36.769884 -106.782407 236 34498ft 389kts
22-Sep-18 07:37 36.705490 -106.890184 236 34496ft 392kts
22-Sep-18 07:38 36.640760 -106.998705 236 34494ft 396kts
22-Sep-18 07:39 36.586281 -107.090144 236 34490ft 398kts
22-Sep-18 07:40 36.509742 -107.218757 236 34459ft 398kts
22-Sep-18 07:41 36.455299 -107.310157 236 34425ft 398kts
22-Sep-18 07:42 36.377419 -107.436763 235 34399ft 398kts
22-Sep-18 07:43 36.321732 -107.527129 235 34357ft 398kts
22-Sep-18 07:44 36.243818 -107.653631 235 34348ft 398kts
22-Sep-18 07:45 36.188039 -107.743636 235 34358ft 399kts
22-Sep-18 07:46 36.120141 -107.851598 235 34370ft 399kts
22-Sep-18 07:47 36.052006 -107.959315 235 34370ft 399kts
22-Sep-18 07:48 35.984366 -108.066231 235 34367ft 398kts
22-Sep-18 07:49 35.916692 -108.173324 235 34398ft 398kts
22-Sep-18 07:50 35.849596 -108.279645 235 34400ft 398kts
22-Sep-18 07:51 35.782467 -108.386156 235 34398ft 398kts
22-Sep-18 07:52 35.715397 -108.492710 235 34397ft 398kts
22-Sep-18 07:53 35.648545 -108.599060 235 34395ft 398kts
22-Sep-18 07:54 35.582205 -108.704624 235 34406ft 399kts
22-Sep-18 07:55 35.515010 -108.811595 235 34411ft 398kts
22-Sep-18 07:56 35.445155 -108.915792 230 34413ft 401kts
22-Sep-18 07:57 35.368575 -109.013603 230 34407ft 403kts
22-Sep-18 07:58 35.291040 -109.113256 229 34411ft 408kts
22-Sep-18 07:59 35.212593 -109.214058 229 34418ft 412kts
22-Sep-18 08:00 35.133811 -109.315073 229 34391ft 412kts
22-Sep-18 08:01 35.055253 -109.415577 229 34355ft 412kts
22-Sep-18 08:02 34.976612 -109.515920 229 34340ft 407kts
22-Sep-18 08:03 34.899236 -109.614405 229 34338ft 402kts
22-Sep-18 08:04 34.822103 -109.712276 228 34356ft 401kts
22-Sep-18 08:05 34.745720 -109.809371 229 34373ft 401kts
22-Sep-18 08:06 34.683749 -109.918938 246 34392ft 397kts
22-Sep-18 08:07 34.638748 -110.040352 246 34393ft 397kts
22-Sep-18 08:08 34.593743 -110.161445 246 34379ft 388kts
22-Sep-18 08:09 34.551036 -110.275715 246 34395ft 374kts
22-Sep-18 08:10 34.506533 -110.394530 246 33461ft 391kts
22-Sep-18 08:11 34.462526 -110.511188 244 31908ft 379kts
22-Sep-18 08:12 34.419131 -110.625851 243 29883ft 374kts
22-Sep-18 08:13 34.376157 -110.738753 242 28240ft 372kts
22-Sep-18 08:14 34.321553 -110.839673 225 26438ft 361kts
22-Sep-18 08:15 34.253542 -110.927073 224 24648ft 355kts
22-Sep-18 08:16 34.187213 -111.012349 224 22908ft 345kts
22-Sep-18 08:17 34.123653 -111.094017 224 21280ft 336kts
22-Sep-18 08:18 34.060954 -111.174420 224 19619ft 331kts
22-Sep-18 08:19 33.998308 -111.254625 224 17964ft 327kts
22-Sep-18 08:20 33.936739 -111.333295 224 16349ft 320kts
22-Sep-18 08:21 33.876782 -111.409316 220 14728ft 310kts
22-Sep-18 08:22 33.807821 -111.468834 214 13080ft 305kts
22-Sep-18 08:23 33.740386 -111.526146 214 11512ft 302kts
22-Sep-18 08:24 33.672988 -111.583690 214 10024ft 289kts
22-Sep-18 08:25 33.611188 -111.635952 214 9127ft 250kts
22-Sep-18 08:26 33.555759 -111.682168 214 7647ft 241kts
22-Sep-18 08:27 33.500977 -111.728298 214 5939ft 240kts
22-Sep-18 08:28 33.456635 -111.782013 245 4445ft 230kts
22-Sep-18 08:29 33.439950 -111.846203 271 3552ft 200kts
22-Sep-18 08:30 33.440641 -111.909689 270 2520ft 181kts
22-Sep-18 08:31 33.440757 -111.960988 270 1689ft 145kts
22-Sep-18 08:32 33.440863 -112.006572 270 1132ft 99kts
22-Sep-18 08:33 33.440033 -112.016853 162 1123ft 5kts
22-Sep-18 08:34 33.439775 -112.013809 90 1126ft 18kts
22-Sep-18 08:35 33.439745 -112.008361 91 1130ft 14kts
22-Sep-18 08:36 33.439752 -112.004819 90 1133ft 9kts
22-Sep-18 08:37 33.439745 -112.000718 89 1136ft 16kts
22-Sep-18 08:38 33.438624 -111.997776 151 1142ft 8kts
22-Sep-18 08:39 33.438176 -111.997342 129 1142ft 0kts
22-Sep-18 08:40 33.438176 -111.997342 129 1142ft 0kts
22-Sep-18 08:41 33.438176 -111.997342 129 1142ft 0kts
22-Sep-18 08:42 33.438176 -111.997342 129 1142ft 0kts
22-Sep-18 08:43 33.438176 -111.997342 129 1142ft 0kts

Navigation Log

Ident Type
Flight plan parsing failed, navigation log unavailable